Alkabo, North Dakota
Current Conditions -  °F | °C
As of 2:52 AM on Friday 24 Oct 2014 (Local Time) from KISN Reporting Station
Clear Clear  
Wind Chill:   Ceiling: Unl
Heat Index:   Visibility: 10mi
Dew Point:   Wind: 3mph
Humidity: 71%   Direction: 180°S
Pressure: 29.79"   Gusts: NA
Location:  48.5901°N, 103.922°W
Report Text: KISN 240752Z AUTO 18003KT 10SM CLR 07/02 A2979 RMK AO2 SLP093 T00670017
Loading
Personal Weather Stations






























Interactive Weather Map
Tropical Storm Tracking
New forecast layout! Learn more

10-Day Weather Forecast

Advertisements
Track Severe Weather on mobile